Time;durP1;ratioP1;P1;durP2;ratioP2;P2;SDS_P1;SDS_P2;PMS_P1;PMS_P2;Temp;Humidity;BMP_temperature;BMP_pressure;BME280_temperature;BME280_humidity;BME280_pressure;Samples;Min_cycle;Max_cycle;Signal;HPM_P1;HPM_P2
2021/12/06 00:33:18;;;;;;;41.17;22.23;;;;;;;-0.99;100.00;100536.19;4911798;29;20059;-82
2021/12/06 00:35:44;;;;;;;41.57;22.27;;;;;;;-1.04;100.00;100531.72;4897724;29;20051;-80
2021/12/06 00:38:11;;;;;;;43.27;23.77;;;;;;;-1.10;100.00;100536.72;4895345;29;20051;-80
2021/12/06 00:40:40;;;;;;;42.37;21.70;;;;;;;-1.18;100.00;100536.53;4887062;29;20045;-82
2021/12/06 00:43:08;;;;;;;36.30;21.07;;;;;;;-1.22;100.00;100538.19;4896793;29;20078;-80
2021/12/06 00:45:38;;;;;;;48.40;23.80;;;;;;;-1.17;100.00;100541.78;4897387;29;20044;-80
2021/12/06 00:48:05;;;;;;;45.50;22.53;;;;;;;-1.11;100.00;100545.34;4909232;29;20337;-84
2021/12/06 00:50:36;;;;;;;46.93;24.90;;;;;;;-1.17;100.00;100546.97;4896964;29;20046;-83
2021/12/06 00:53:03;;;;;;;43.10;22.97;;;;;;;-1.29;100.00;100543.19;4881928;29;20046;-81
2021/12/06 00:55:30;;;;;;;39.77;21.53;;;;;;;-1.32;100.00;100544.00;4896594;29;20048;-81
2021/12/06 00:57:57;;;;;;;43.10;23.63;;;;;;;-1.37;100.00;100547.28;4897774;29;20086;-81
2021/12/06 01:00:50;;;;;;;43.90;23.33;;;;;;;-1.27;100.00;100552.75;4883848;29;20044;-80
2021/12/06 01:03:23;;;;;;;40.37;22.27;;;;;;;-1.40;100.00;100553.28;4863263;29;20056;-82
2021/12/06 01:05:49;;;;;;;41.03;22.37;;;;;;;-1.45;100.00;100547.97;4898045;29;20139;-81
2021/12/06 01:08:17;;;;;;;44.17;23.70;;;;;;;-1.39;100.00;100556.75;4897384;29;20055;-81
2021/12/06 01:10:45;;;;;;;44.83;22.50;;;;;;;-1.45;100.00;100557.47;4879636;29;20051;-84
2021/12/06 01:13:13;;;;;;;40.07;22.93;;;;;;;-1.44;100.00;100569.56;4897837;29;20519;-82
2021/12/06 01:15:40;;;;;;;40.63;22.00;;;;;;;-1.51;100.00;100567.69;4897760;29;20055;-82
2021/12/06 01:18:09;;;;;;;45.63;24.87;;;;;;;-1.49;100.00;100569.47;4894792;29;20048;-80
2021/12/06 01:20:48;;;;;;;45.47;23.40;;;;;;;-1.57;100.00;100572.69;4897592;29;20044;-81
2021/12/06 01:23:21;;;;;;;48.27;24.73;;;;;;;-1.38;100.00;100584.41;4898192;29;20147;-83
2021/12/06 01:39:18;;;;;;;55.73;25.67;;;;;;;-1.38;100.00;100602.56;4898423;29;20048;-83
2021/12/06 01:42:02;;;;;;;46.10;25.37;;;;;;;-1.43;100.00;100602.41;4899359;29;20040;-86
2021/12/06 01:44:35;;;;;;;46.80;25.45;;;;;;;-1.32;100.00;100601.00;4896927;29;20247;-83
2021/12/06 01:47:05;;;;;;;52.33;25.20;;;;;;;-1.36;100.00;100601.75;4898073;29;20044;-83
2021/12/06 01:49:38;;;;;;;51.07;26.67;;;;;;;-1.32;100.00;100605.31;4886010;29;20049;-83
2021/12/06 01:52:10;;;;;;;50.67;26.10;;;;;;;-1.29;100.00;100613.16;4895284;29;20054;-82
2021/12/06 01:54:38;;;;;;;53.20;26.50;;;;;;;-1.29;100.00;100621.81;4897429;29;20052;-83
2021/12/06 01:57:05;;;;;;;51.87;27.73;;;;;;;-1.31;100.00;100618.31;4899030;29;20040;-84
2021/12/06 01:59:32;;;;;;;52.70;26.73;;;;;;;-1.14;100.00;100630.00;4897098;29;20131;-82
2021/12/06 02:01:59;;;;;;;55.43;26.23;;;;;;;-1.03;100.00;100616.44;4883868;29;20517;-83
2021/12/06 02:04:28;;;;;;;49.03;25.87;;;;;;;-0.99;100.00;100618.28;4881855;29;20048;-86
2021/12/06 02:06:57;;;;;;;58.70;27.77;;;;;;;-1.04;100.00;100620.72;4888045;29;20489;-81
2021/12/06 02:09:26;;;;;;;48.73;25.47;;;;;;;-1.01;100.00;100617.34;4896175;29;20051;-82
2021/12/06 02:11:54;;;;;;;55.37;28.30;;;;;;;-0.95;100.00;100617.50;4897678;29;20429;-83
2021/12/06 02:14:52;;;;;;;47.43;27.20;;;;;;;-1.06;100.00;100621.53;4878754;29;20064;-84
2021/12/06 02:17:27;;;;;;;48.87;27.27;;;;;;;-1.01;100.00;100631.22;4888840;29;20052;-82
2021/12/06 02:20:01;;;;;;;55.17;28.17;;;;;;;-0.97;100.00;100622.66;4884681;29;20048;-85
2021/12/06 02:22:31;;;;;;;49.95;26.02;;;;;;;-1.01;100.00;100623.44;4915387;29;20044;-85
2021/12/06 02:24:58;;;;;;;50.00;26.03;;;;;;;-1.11;100.00;100617.94;4914429;29;20064;-83
2021/12/06 02:27:27;;;;;;;51.20;26.17;;;;;;;-1.06;100.00;100618.94;4889462;29;20056;-84
2021/12/06 02:29:56;;;;;;;57.83;27.53;;;;;;;-1.07;100.00;100609.44;4879734;29;20044;-81
2021/12/06 02:32:24;;;;;;;49.13;24.73;;;;;;;-1.16;100.00;100618.72;4911294;29;20063;-84
2021/12/06 02:34:54;;;;;;;53.73;25.93;;;;;;;-1.23;100.00;100611.63;4901942;29;20051;-83
2021/12/06 02:37:24;;;;;;;48.33;24.73;;;;;;;-1.19;100.00;100617.75;4886736;29;20048;-86
2021/12/06 02:40:01;;;;;;;53.23;26.80;;;;;;;-1.24;100.00;100617.63;4902040;29;20036;-81
2021/12/06 02:42:27;;;;;;;44.70;24.73;;;;;;;-1.35;100.00;100613.88;4894769;29;20334;-82
2021/12/06 02:44:54;;;;;;;51.20;25.93;;;;;;;-1.26;100.00;100623.59;4871601;29;20044;-81
2021/12/06 02:47:21;;;;;;;46.07;25.77;;;;;;;-1.34;100.00;100613.06;4885831;29;20056;-80
2021/12/06 02:49:48;;;;;;;48.10;26.00;;;;;;;-1.36;100.00;100625.06;4900637;29;20059;-84
2021/12/06 02:52:14;;;;;;;45.40;23.97;;;;;;;-1.41;100.00;100626.69;4893337;29;20044;-81
2021/12/06 02:54:49;;;;;;;51.23;26.23;;;;;;;-1.44;100.00;100621.41;4895706;29;20072;-80
2021/12/06 02:59:46;;;;;;;46.30;22.57;;;;;;;-1.47;100.00;100635.16;4881588;29;19924;-81
2021/12/06 03:02:17;;;;;;;41.10;23.77;;;;;;;-1.46;100.00;100634.31;4875053;29;20051;-81
2021/12/06 03:04:45;;;;;;;50.03;25.53;;;;;;;-1.43;100.00;100643.88;4900388;29;20064;-82
2021/12/06 03:07:15;;;;;;;46.90;24.30;;;;;;;-1.46;100.00;100639.50;4901332;29;20497;-81
2021/12/06 03:09:41;;;;;;;48.27;24.03;;;;;;;-1.42;100.00;100643.06;4900348;29;20398;-80
2021/12/06 03:12:18;;;;;;;44.03;23.20;;;;;;;-1.43;100.00;100646.47;4901303;29;20130;-82
2021/12/06 03:14:52;;;;;;;50.97;23.57;;;;;;;-1.40;100.00;100646.56;4900224;29;20467;-81
2021/12/06 03:17:20;;;;;;;45.50;23.27;;;;;;;-1.38;100.00;100650.06;4901601;29;20052;-81
2021/12/06 03:19:48;;;;;;;48.63;25.43;;;;;;;-1.36;100.00;100643.22;4899849;29;20040;-81
2021/12/06 03:22:16;;;;;;;46.33;24.70;;;;;;;-1.33;100.00;100645.03;4885723;29;20489;-81
2021/12/06 03:24:43;;;;;;;49.40;24.93;;;;;;;-1.36;100.00;100647.53;4899892;29;20055;-83
2021/12/06 03:27:11;;;;;;;46.70;24.07;;;;;;;-1.37;100.00;100641.47;4885805;29;20263;-81
2021/12/06 03:29:38;;;;;;;44.87;23.30;;;;;;;-1.32;100.00;100652.84;4899745;29;20041;-81
2021/12/06 03:32:06;;;;;;;52.13;24.33;;;;;;;-1.31;100.00;100648.53;4885341;29;20059;-82
2021/12/06 03:34:33;;;;;;;48.37;24.30;;;;;;;-1.29;100.00;100652.91;4899810;29;20099;-85
2021/12/06 03:37:02;;;;;;;38.57;23.07;;;;;;;-1.36;100.00;100657.88;4916720;29;20039;-81
2021/12/06 03:39:33;;;;;;;41.43;23.17;;;;;;;-1.33;100.00;100658.00;4900988;29;20100;-84
2021/12/06 03:42:03;;;;;;;51.87;24.33;;;;;;;-1.26;100.00;100658.19;4900320;29;20052;-83
2021/12/06 03:44:31;;;;;;;50.30;25.73;;;;;;;-1.27;100.00;100674.56;4900152;29;20100;-81
2021/12/06 03:47:01;;;;;;;50.07;25.77;;;;;;;-1.33;100.00;100674.41;4885379;29;20513;-82
2021/12/06 03:49:28;;;;;;;44.77;24.47;;;;;;;-1.29;100.00;100678.84;4884316;29;20477;-81
2021/12/06 03:51:55;;;;;;;48.47;25.57;;;;;;;-1.32;100.00;100677.88;4900514;29;20458;-81
2021/12/06 03:54:24;;;;;;;47.50;24.03;;;;;;;-1.34;100.00;100689.94;4874481;29;20052;-81
2021/12/06 03:56:51;;;;;;;50.97;25.13;;;;;;;-1.30;100.00;100692.63;4900344;29;20053;-81
2021/12/06 03:59:19;;;;;;;51.20;25.13;;;;;;;-1.33;100.00;100691.69;4914924;29;20051;-80
2021/12/06 04:01:47;;;;;;;45.93;23.73;;;;;;;-1.26;100.00;100698.75;4900676;29;20055;-81
2021/12/06 04:04:14;;;;;;;45.37;22.83;;;;;;;-1.32;100.00;100696.03;4909988;29;20044;-81
2021/12/06 04:06:42;;;;;;;46.70;22.50;;;;;;;-1.25;100.00;100705.72;4900564;29;20131;-81
2021/12/06 04:09:10;;;;;;;42.20;21.53;;;;;;;-1.27;100.00;100710.84;4883879;29;20595;-81
2021/12/06 04:11:37;;;;;;;52.33;23.77;;;;;;;-1.24;100.00;100715.25;4900497;29;20044;-82
2021/12/06 04:14:05;;;;;;;42.67;21.73;;;;;;;-1.27;100.00;100718.63;4899048;29;20134;-81
2021/12/06 04:16:32;;;;;;;43.10;21.70;;;;;;;-1.30;100.00;100718.53;4900560;29;20052;-81
2021/12/06 04:19:01;;;;;;;44.60;22.70;;;;;;;-1.25;100.00;100722.16;4898908;29;20131;-81
2021/12/06 04:21:28;;;;;;;45.27;23.47;;;;;;;-1.26;100.00;100724.69;4884677;29;20052;-81
2021/12/06 04:23:55;;;;;;;43.13;22.87;;;;;;;-1.18;100.00;100731.88;4878428;29;20052;-81
2021/12/06 04:26:22;;;;;;;45.60;23.80;;;;;;;-1.20;100.00;100722.28;4883395;29;20048;-86
2021/12/06 04:28:58;;;;;;;45.90;24.50;;;;;;;-1.27;100.00;100728.13;4898230;29;20406;-82
2021/12/06 04:31:31;;;;;;;45.10;23.47;;;;;;;-1.23;100.00;100725.66;4883450;29;20044;-81
2021/12/06 04:33:58;;;;;;;49.27;24.07;;;;;;;-1.18;100.00;100728.38;4898070;29;20044;-82
2021/12/06 04:36:37;;;;;;;46.00;22.47;;;;;;;-1.18;100.00;100729.28;4877843;29;20051;-81
2021/12/06 04:39:07;;;;;;;45.17;22.80;;;;;;;-1.21;100.00;100734.34;4868756;29;20044;-81
2021/12/06 04:41:35;;;;;;;45.30;23.90;;;;;;;-1.18;100.00;100731.88;4894565;29;20056;-81
2021/12/06 04:44:02;;;;;;;40.00;22.77;;;;;;;-1.11;100.00;100739.78;4883199;29;20051;-81
2021/12/06 04:46:29;;;;;;;44.07;22.30;;;;;;;-1.10;100.00;100736.34;4884216;29;20143;-84
2021/12/06 04:48:56;;;;;;;42.17;22.43;;;;;;;-1.14;100.00;100744.06;4900955;29;20357;-81
2021/12/06 04:51:23;;;;;;;47.33;23.73;;;;;;;-1.13;100.00;100732.84;4902365;29;20135;-82
2021/12/06 04:53:52;;;;;;;45.10;22.87;;;;;;;-1.17;100.00;100731.03;4917482;29;20051;-81
2021/12/06 04:56:24;;;;;;;47.97;23.73;;;;;;;-1.04;100.00;100747.78;4919576;29;20047;-81
2021/12/06 04:59:07;;;;;;;40.80;22.10;;;;;;;-1.06;100.00;100743.41;4953307;23;20059;-86
2021/12/06 05:01:35;;;;;;;44.17;21.50;;;;;;;-1.07;100.00;100752.03;4904217;29;20048;-86
2021/12/06 05:04:09;;;;;;;43.53;22.30;;;;;;;-0.96;100.00;100760.97;4886306;29;20044;-86
2021/12/06 05:06:38;;;;;;;49.20;24.70;;;;;;;-1.02;100.00;100766.84;4885240;29;20059;-86
2021/12/06 05:09:18;;;;;;;41.70;21.90;;;;;;;-1.02;100.00;100766.84;4901281;29;20115;-86
2021/12/06 05:11:45;;;;;;;40.47;22.73;;;;;;;-0.98;100.00;100765.25;4888060;29;20044;-87
2021/12/06 05:14:13;;;;;;;45.97;21.67;;;;;;;-0.97;100.00;100764.41;4883566;29;20048;-86
2021/12/06 05:16:39;;;;;;;48.03;23.47;;;;;;;-0.98;100.00;100763.53;4889733;29;20056;-87
2021/12/06 05:19:06;;;;;;;46.73;23.63;;;;;;;-0.90;100.00;100764.63;4902159;29;20557;-87
2021/12/06 05:21:34;;;;;;;43.47;23.27;;;;;;;-0.93;100.00;100771.41;4896971;29;20044;-86
2021/12/06 05:24:01;;;;;;;48.63;24.27;;;;;;;-0.98;100.00;100768.72;4905735;29;20075;-86
2021/12/06 05:26:28;;;;;;;40.77;21.70;;;;;;;-0.94;100.00;100775.72;4894738;29;20051;-86
2021/12/06 05:28:59;;;;;;;41.10;21.20;;;;;;;-0.97;100.00;100773.06;4897373;29;20044;-86
2021/12/06 05:31:26;;;;;;;41.30;21.87;;;;;;;-0.94;100.00;100782.63;4896960;29;20107;-85
2021/12/06 05:33:59;;;;;;;45.27;22.03;;;;;;;-0.92;100.00;100779.25;4897764;29;20045;-85
2021/12/06 05:36:26;;;;;;;42.30;20.90;;;;;;;-1.00;100.00;100785.06;4897749;29;20710;-87
2021/12/06 05:38:54;;;;;;;41.67;22.47;;;;;;;-0.99;100.00;100787.69;4884340;29;20044;-86
2021/12/06 05:41:21;;;;;;;39.80;21.10;;;;;;;-1.00;100.00;100791.13;4882679;29;20048;-85
2021/12/06 05:43:48;;;;;;;47.10;23.13;;;;;;;-0.95;100.00;100788.66;4871818;29;20052;-87
2021/12/06 05:46:15;;;;;;;45.33;22.20;;;;;;;-0.99;100.00;100784.22;4904917;29;20048;-87
2021/12/06 05:48:42;;;;;;;37.77;20.57;;;;;;;-1.01;100.00;100791.06;4887390;29;20063;-86
2021/12/06 05:51:09;;;;;;;38.20;19.73;;;;;;;-0.99;100.00;100802.38;4886172;29;20036;-86
2021/12/06 05:53:36;;;;;;;41.13;21.80;;;;;;;-0.85;100.00;100801.03;4886193;29;20455;-86
2021/12/06 05:56:03;;;;;;;42.43;22.53;;;;;;;-0.85;100.00;100808.81;4887258;29;20488;-85
2021/12/06 05:58:32;;;;;;;38.07;20.87;;;;;;;-0.87;100.00;100815.69;4872038;29;20048;-87
2021/12/06 06:00:59;;;;;;;40.50;21.00;;;;;;;-0.90;100.00;100813.00;4901733;29;20458;-87
2021/12/06 06:03:26;;;;;;;41.43;21.63;;;;;;;-0.96;100.00;100825.78;4881115;29;20458;-88
2021/12/06 06:05:53;;;;;;;36.20;18.90;;;;;;;-1.01;100.00;100823.09;4889475;29;20152;-86
2021/12/06 06:08:20;;;;;;;39.23;20.47;;;;;;;-1.00;100.00;100822.25;4906322;29;20040;-87
2021/12/06 06:10:47;;;;;;;48.67;23.17;;;;;;;-0.96;100.00;100812.84;4893022;29;20052;-87
2021/12/06 06:13:14;;;;;;;40.57;20.90;;;;;;;-0.99;100.00;100818.81;4891562;29;20139;-87
2021/12/06 06:15:41;;;;;;;34.03;17.97;;;;;;;-1.03;100.00;100816.06;4891162;29;20058;-85
2021/12/06 06:18:08;;;;;;;47.60;22.70;;;;;;;-0.94;100.00;100821.53;4887050;29;20048;-87
2021/12/06 06:21:01;;;;;;;36.77;19.83;;;;;;;-1.00;100.00;100829.16;4902162;29;20048;-86
2021/12/06 06:23:28;;;;;;;36.50;18.43;;;;;;;-1.01;100.00;100837.75;4881231;29;20048;-86
2021/12/06 06:25:56;;;;;;;34.90;19.83;;;;;;;-1.00;100.00;100836.94;4884368;29;20095;-86
2021/12/06 06:28:22;;;;;;;39.23;19.67;;;;;;;-1.00;100.00;100845.59;4899945;29;20493;-85
2021/12/06 06:30:49;;;;;;;37.90;20.60;;;;;;;-0.91;100.00;100852.75;4885852;29;20044;-85
2021/12/06 06:33:16;;;;;;;37.77;20.00;;;;;;;-0.92;100.00;100848.41;4902022;29;20048;-85
2021/12/06 06:35:43;;;;;;;40.73;20.77;;;;;;;-1.00;100.00;100858.56;4903395;29;20067;-87
2021/12/06 06:38:10;;;;;;;42.70;20.77;;;;;;;-1.01;100.00;100858.47;4902043;29;20051;-85
2021/12/06 06:40:36;;;;;;;38.53;18.87;;;;;;;-1.03;100.00;100862.75;4888955;29;20051;-87
2021/12/06 06:43:03;;;;;;;40.73;19.33;;;;;;;-1.03;100.00;100862.75;4894301;29;20052;-87
2021/12/06 06:45:30;;;;;;;41.07;20.93;;;;;;;-0.92;100.00;100862.25;4907059;29;20044;-86
2021/12/06 06:47:57;;;;;;;35.00;19.00;;;;;;;-1.01;100.00;100868.84;4892965;29;20139;-86
2021/12/06 06:50:24;;;;;;;37.60;19.97;;;;;;;-1.00;100.00;100873.22;4906280;29;20052;-86
2021/12/06 06:52:51;;;;;;;35.40;19.87;;;;;;;-1.00;100.00;100879.28;4907336;29;20068;-86
2021/12/06 06:55:19;;;;;;;37.83;18.90;;;;;;;-1.02;100.00;100882.66;4901323;29;20052;-83
2021/12/06 06:57:47;;;;;;;35.20;19.83;;;;;;;-1.02;100.00;100880.94;4902989;29;20500;-86
2021/12/06 07:00:25;;;;;;;37.53;19.47;;;;;;;-0.96;100.00;100882.84;4901109;29;20048;-86
2021/12/06 07:02:52;;;;;;;39.00;19.13;;;;;;;-0.99;100.00;100878.47;4902931;29;20048;-85
2021/12/06 07:05:19;;;;;;;37.53;20.30;;;;;;;-1.02;100.00;100873.16;4918890;29;20090;-86
2021/12/06 07:07:46;;;;;;;38.80;17.93;;;;;;;-0.97;100.00;100886.28;4921438;29;20047;-84
2021/12/06 07:10:13;;;;;;;37.47;19.03;;;;;;;-0.97;100.00;100881.97;4908819;29;20044;-86
2021/12/06 07:12:46;;;;;;;41.03;20.67;;;;;;;-0.96;100.00;100886.31;4889113;29;20204;-87
2021/12/06 07:15:15;;;;;;;34.33;19.33;;;;;;;-0.95;100.00;100889.78;4901992;29;20461;-87
2021/12/06 07:17:43;;;;;;;36.13;19.03;;;;;;;-0.92;100.00;100893.38;4903100;29;20139;-88
2021/12/06 07:20:11;;;;;;;32.07;18.17;;;;;;;-0.95;100.00;100900.16;4888086;29;20378;-87
2021/12/06 07:22:38;;;;;;;34.10;17.83;;;;;;;-0.88;100.00;100899.50;4899910;29;20044;-87
2021/12/06 07:25:06;;;;;;;38.20;19.33;;;;;;;-0.82;100.00;100898.81;4905071;29;20057;-87
2021/12/06 07:27:36;;;;;;;34.10;17.53;;;;;;;-0.91;100.00;100895.13;4898198;29;20048;-87
2021/12/06 07:30:04;;;;;;;40.57;18.67;;;;;;;-0.83;100.00;100903.13;4901329;29;20044;-87
2021/12/06 07:32:31;;;;;;;35.03;16.50;;;;;;;-0.82;100.00;100910.06;4896403;29;20056;-86
2021/12/06 07:34:57;;;;;;;32.47;16.73;;;;;;;-0.70;100.00;100909.53;4890134;29;20110;-87
2021/12/06 07:37:24;;;;;;;35.17;17.80;;;;;;;-0.75;100.00;100911.16;4906978;29;20052;-87
2021/12/06 07:39:51;;;;;;;34.40;18.63;;;;;;;-0.75;100.00;100904.25;4905884;29;20119;-86
2021/12/06 07:42:18;;;;;;;38.53;18.53;;;;;;;-0.78;100.00;100898.94;4906037;29;20048;-87
2021/12/06 07:44:45;;;;;;;36.53;19.20;;;;;;;-0.71;100.00;100898.28;4921326;29;20043;-87
2021/12/06 07:47:12;;;;;;;33.93;18.27;;;;;;;-0.74;100.00;100898.22;4897081;29;20060;-87
2021/12/06 07:49:39;;;;;;;32.47;16.10;;;;;;;-0.70;100.00;100904.34;4889710;29;20048;-87
2021/12/06 07:52:24;;;;;;;33.50;16.93;;;;;;;-0.59;100.00;100909.03;4919338;29;20055;-87
2021/12/06 07:54:53;;;;;;;30.83;16.03;;;;;;;-0.65;100.00;100911.44;4889308;29;20058;-86
2021/12/06 07:57:20;;;;;;;35.80;15.03;;;;;;;-0.65;100.00;100908.84;4890135;29;20048;-85
2021/12/06 07:59:46;;;;;;;39.00;16.93;;;;;;;-0.56;100.00;100908.22;4894405;29;20100;-86
2021/12/06 08:02:13;;;;;;;28.13;15.83;;;;;;;-0.54;100.00;100916.06;4906637;29;20063;-86
2021/12/06 08:04:40;;;;;;;31.07;16.57;;;;;;;-0.49;100.00;100912.78;4907087;29;20406;-87
2021/12/06 08:07:07;;;;;;;30.50;15.87;;;;;;;-0.55;100.00;100909.13;4906525;29;20044;-86
2021/12/06 08:09:34;;;;;;;29.50;14.33;;;;;;;-0.45;100.00;100911.13;4887936;29;20502;-86
2021/12/06 08:12:00;;;;;;;30.80;15.63;;;;;;;-0.44;100.00;100918.94;4892029;29;20044;-88
2021/12/06 08:14:27;;;;;;;32.13;16.07;;;;;;;-0.44;100.00;100916.34;4923917;29;20056;-87
2021/12/06 08:16:54;;;;;;;33.07;15.57;;;;;;;-0.37;100.00;100917.41;4909573;29;20126;-88
2021/12/06 08:19:21;;;;;;;24.77;15.13;;;;;;;-0.43;100.00;100918.09;4903614;29;20058;-89
2021/12/06 08:21:47;;;;;;;31.93;15.23;;;;;;;-0.40;100.00;100913.03;4901832;29;20041;-88
2021/12/06 08:24:14;;;;;;;28.87;14.43;;;;;;;-0.33;100.00;100921.88;4897596;29;20052;-86
2021/12/06 08:26:42;;;;;;;29.73;15.67;;;;;;;-0.32;100.00;100916.72;4895868;29;20052;-87
2021/12/06 08:29:11;;;;;;;29.77;15.47;;;;;;;-0.27;100.00;100919.41;4895472;29;20060;-86
2021/12/06 08:31:41;;;;;;;31.13;15.30;;;;;;;-0.33;100.00;100914.94;4896378;29;20045;-86
2021/12/06 08:34:08;;;;;;;29.60;14.53;;;;;;;-0.27;100.00;100914.22;4891180;29;20060;-86
2021/12/06 08:36:35;;;;;;;32.57;14.90;;;;;;;-0.29;100.00;100910.72;4900511;29;20048;-86
2021/12/06 08:39:04;;;;;;;27.80;13.60;;;;;;;-0.24;100.00;100922.13;4887561;29;20054;-86
2021/12/06 08:41:31;;;;;;;27.63;14.00;;;;;;;-0.19;100.00;100927.41;4890291;29;20117;-85
2021/12/06 08:44:01;;;;;;;28.93;14.27;;;;;;;-0.16;100.00;100927.53;4919686;29;20048;-86
2021/12/06 08:46:37;;;;;;;29.93;15.07;;;;;;;-0.20;100.00;100926.53;4896262;29;20044;-87
2021/12/06 08:49:05;;;;;;;24.80;14.57;;;;;;;-0.09;100.00;100917.31;4916032;29;20047;-86
2021/12/06 08:51:44;;;;;;;29.10;15.30;;;;;;;-0.07;100.00;100927.75;4874463;29;20132;-87
2021/12/06 08:54:12;;;;;;;31.77;16.27;;;;;;;-0.06;100.00;100926.91;4894179;29;20051;-86
2021/12/06 08:56:40;;;;;;;28.23;14.17;;;;;;;-0.04;100.00;100935.63;4891394;29;20044;-86
2021/12/06 08:59:07;;;;;;;26.73;14.33;;;;;;;-0.02;100.00;100942.59;4882235;29;20078;-86
2021/12/06 09:01:35;;;;;;;27.00;14.70;;;;;;;0.00;100.00;100947.88;4898634;29;20046;-86
2021/12/06 09:04:23;;;;;;;27.00;14.50;;;;;;;0.01;100.00;100941.84;4886241;29;20047;-86
2021/12/06 09:06:54;;;;;;;31.20;14.87;;;;;;;0.01;100.00;100944.44;4883087;29;20048;-86
2021/12/06 09:09:22;;;;;;;34.43;15.57;;;;;;;0.03;100.00;100952.25;4895768;29;20043;-86
2021/12/06 09:11:49;;;;;;;31.20;16.30;;;;;;;-0.05;100.00;100950.31;4894096;29;20055;-87
2021/12/06 09:14:21;;;;;;;26.77;15.10;;;;;;;0.01;100.00;100960.00;4913158;29;20315;-86
2021/12/06 09:16:48;;;;;;;26.83;14.47;;;;;;;-0.02;100.00;100953.00;4899837;29;20048;-87
2021/12/06 09:19:17;;;;;;;26.47;13.00;;;;;;;0.01;100.00;100959.13;4898370;29;20040;-89
2021/12/06 09:21:44;;;;;;;27.17;13.47;;;;;;;0.14;100.00;100953.41;4916154;29;20051;-87
2021/12/06 09:24:14;;;;;;;26.80;13.20;;;;;;;0.12;100.00;100962.88;4901450;29;20505;-89
2021/12/06 09:26:43;;;;;;;29.33;15.37;;;;;;;0.24;100.00;100965.78;4902580;29;20068;-87
2021/12/06 09:29:11;;;;;;;26.73;14.00;;;;;;;0.31;100.00;100956.44;4917141;29;20051;-88
2021/12/06 09:31:39;;;;;;;22.97;12.00;;;;;;;0.31;100.00;100962.53;4902177;29;20629;-87
2021/12/06 09:34:07;;;;;;;24.77;13.17;;;;;;;0.29;100.00;100966.81;4916849;29;20135;-89
2021/12/06 09:36:35;;;;;;;27.53;13.73;;;;;;;0.30;100.00;100960.75;4918003;29;20099;-88
2021/12/06 09:39:05;;;;;;;23.60;12.53;;;;;;;0.38;100.00;100959.25;4900354;29;20073;-88
2021/12/06 09:41:32;;;;;;;26.53;13.80;;;;;;;0.44;100.00;100961.13;4892898;29;20048;-88
2021/12/06 09:44:01;;;;;;;22.77;12.50;;;;;;;0.39;100.00;100953.19;4883073;29;20109;-87
2021/12/06 09:46:33;;;;;;;25.63;13.10;;;;;;;0.49;100.00;100951.72;4874857;29;20049;-87
2021/12/06 09:49:03;;;;;;;28.33;14.13;;;;;;;0.60;100.00;100950.28;4882165;29;20042;-86
2021/12/06 09:51:30;;;;;;;25.50;12.60;;;;;;;0.59;100.00;100953.72;4898906;29;20067;-87
2021/12/06 09:53:57;;;;;;;24.60;12.83;;;;;;;0.64;100.00;100953.81;4881957;29;20048;-87
2021/12/06 09:56:31;;;;;;;23.53;12.03;;;;;;;0.54;100.00;100953.59;4898713;29;20052;-87
2021/12/06 09:59:00;;;;;;;23.52;11.70;;;;;;;0.59;100.00;100955.41;4882261;29;20072;-87
2021/12/06 10:01:31;;;;;;;25.93;13.47;;;;;;;0.59;100.00;100945.00;4884741;29;20067;-87
2021/12/06 10:03:59;;;;;;;23.70;12.57;;;;;;;0.72;100.00;100952.28;4898859;29;20051;-87
2021/12/06 10:06:28;;;;;;;24.90;13.63;;;;;;;0.70;100.00;100953.97;4900392;29;20059;-87
2021/12/06 10:08:55;;;;;;;23.80;12.20;;;;;;;0.75;100.00;100947.13;4882866;29;20048;-86
2021/12/06 10:11:23;;;;;;;23.33;11.53;;;;;;;0.79;100.00;100954.19;4911427;29;20048;-89
2021/12/06 10:13:51;;;;;;;22.17;12.43;;;;;;;0.87;100.00;100952.66;4889461;29;20044;-87
2021/12/06 10:16:19;;;;;;;21.07;11.50;;;;;;;0.91;100.00;100950.97;4882803;29;20052;-86
2021/12/06 10:18:46;;;;;;;20.03;11.70;;;;;;;0.96;100.00;100949.38;4893760;29;20466;-87
2021/12/06 10:21:14;;;;;;;21.47;11.77;;;;;;;0.95;100.00;100943.31;4885520;29;20058;-86
2021/12/06 10:23:42;;;;;;;21.83;11.20;;;;;;;0.97;100.00;100946.81;4884225;29;20052;-89
2021/12/06 10:26:11;;;;;;;22.63;12.50;;;;;;;1.06;100.00;100934.00;4885816;29;20102;-87
2021/12/06 10:28:41;;;;;;;18.60;11.20;;;;;;;1.07;100.00;100929.69;4890380;29;20135;-86
2021/12/06 10:31:08;;;;;;;23.53;12.37;;;;;;;1.17;100.00;100928.16;4885972;29;20478;-85
2021/12/06 10:33:39;;;;;;;22.03;11.40;;;;;;;1.20;100.00;100917.84;4901100;29;21017;-85
2021/12/06 10:36:08;;;;;;;21.13;10.43;;;;;;;1.23;100.00;100920.47;4884957;29;20074;-85
2021/12/06 10:38:41;;;;;;;21.03;11.27;;;;;;;1.15;100.00;100922.03;4903772;29;20062;-86
2021/12/06 10:41:10;;;;;;;19.83;11.23;;;;;;;1.12;100.00;100904.66;4911294;29;20040;-86
2021/12/06 10:43:37;;;;;;;19.83;10.43;;;;;;;1.10;100.00;100909.81;4898676;29;20152;-89
2021/12/06 10:46:06;;;;;;;22.80;10.87;;;;;;;1.06;100.00;100912.31;4900113;29;20103;-86
2021/12/06 10:48:38;;;;;;;19.60;11.10;;;;;;;1.15;100.00;100909.91;4898968;29;20143;-89
2021/12/06 10:51:10;;;;;;;20.17;11.93;;;;;;;1.24;100.00;100901.41;4888772;29;20044;-87
2021/12/06 10:53:44;;;;;;;21.33;10.47;;;;;;;1.27;100.00;100896.31;4903927;29;20054;-86
2021/12/06 10:56:20;;;;;;;19.63;10.93;;;;;;;1.32;100.00;100899.84;4889704;29;20067;-86
2021/12/06 10:58:50;;;;;;;20.97;10.50;;;;;;;1.24;100.00;100891.00;4903172;29;20071;-88
2021/12/06 11:01:20;;;;;;;18.43;10.30;;;;;;;1.28;100.00;100891.13;4918123;23;20051;-82
2021/12/06 11:03:51;;;;;;;18.90;10.20;;;;;;;1.21;100.00;100893.56;4921585;29;20115;-83
2021/12/06 11:06:25;;;;;;;21.70;9.87;;;;;;;1.16;100.00;100885.63;4931334;29;20485;-81
2021/12/06 11:08:54;;;;;;;18.13;10.05;;;;;;;1.23;100.00;100884.06;4883896;29;20052;-82
2021/12/06 11:11:27;;;;;;;19.70;10.47;;;;;;;1.06;100.00;100876.75;4909310;29;20044;-85
2021/12/06 11:14:27;;;;;;;17.67;9.83;;;;;;;0.98;100.00;100873.13;4862368;29;20056;-85
2021/12/06 11:16:57;;;;;;;18.37;9.90;;;;;;;0.86;100.00;100870.25;4886124;29;20057;-82
2021/12/06 11:19:26;;;;;;;20.37;11.33;;;;;;;0.77;100.00;100883.06;4892235;29;20049;-82
2021/12/06 11:22:00;;;;;;;19.33;10.97;;;;;;;0.98;100.00;100874.84;4882557;29;20052;-85
2021/12/06 11:24:39;;;;;;;22.23;10.53;;;;;;;0.95;100.00;100872.19;4897024;29;20052;-82
2021/12/06 11:27:19;;;;;;;17.53;9.57;;;;;;;0.96;100.00;100867.00;4903837;29;20048;-83
2021/12/06 11:30:03;;;;;;;21.17;10.60;;;;;;;1.17;100.00;100860.50;4907504;29;20503;-82
2021/12/06 11:32:38;;;;;;;19.73;9.90;;;;;;;1.30;100.00;100858.19;4917896;29;20088;-80
2021/12/06 11:35:12;;;;;;;17.03;9.57;;;;;;;1.36;100.00;100850.50;4913937;29;20056;-83
2021/12/06 11:37:44;;;;;;;16.67;9.10;;;;;;;1.42;100.00;100849.72;4878517;29;20072;-81
2021/12/06 11:40:21;;;;;;;17.47;10.40;;;;;;;1.47;100.00;100852.44;4930560;29;20682;-83
2021/12/06 11:43:03;;;;;;;18.20;9.33;;;;;;;1.41;100.00;100853.19;4886524;29;20036;-83
2021/12/06 11:45:42;;;;;;;16.93;9.33;;;;;;;1.40;100.00;100857.50;4915625;29;20139;-84
2021/12/06 11:48:14;;;;;;;16.87;8.87;;;;;;;1.26;100.00;100852.88;4911503;29;20048;-85
2021/12/06 11:50:54;;;;;;;18.23;9.30;;;;;;;1.31;100.00;100846.91;4917599;29;20052;-83
2021/12/06 11:53:32;;;;;;;16.00;8.90;;;;;;;1.36;100.00;100847.91;4879268;29;20388;-84
2021/12/06 11:56:11;;;;;;;16.30;9.03;;;;;;;1.23;100.00;100852.81;4895933;29;20053;-83
2021/12/06 11:58:43;;;;;;;15.70;8.63;;;;;;;1.29;100.00;100853.84;4881238;29;20060;-83
2021/12/06 12:01:17;;;;;;;15.17;8.27;;;;;;;1.12;100.00;100858.69;4907215;29;20466;-83
2021/12/06 12:03:47;;;;;;;14.80;8.67;;;;;;;1.14;100.00;100853.50;4870019;29;20044;-83